sensor_id;sensor_type;location;lat;lon;timestamp;P1;durP1;ratioP1;P2;durP2;ratioP2
12910;SDS011;6523;49.758;6.120;2022-10-16T00:01:47;4.17;;;3.40;;
12910;SDS011;6523;49.758;6.120;2022-10-16T00:04:13;6.13;;;3.03;;
12910;SDS011;6523;49.758;6.120;2022-10-16T00:06:38;6.10;;;3.20;;
12910;SDS011;6523;49.758;6.120;2022-10-16T00:09:04;3.20;;;2.90;;
12910;SDS011;6523;49.758;6.120;2022-10-16T00:11:31;3.03;;;2.73;;
12910;SDS011;6523;49.758;6.120;2022-10-16T00:13:59;2.70;;;2.20;;
12910;SDS011;6523;49.758;6.120;2022-10-16T00:16:27;3.30;;;2.90;;
12910;SDS011;6523;49.758;6.120;2022-10-16T00:18:53;5.07;;;2.63;;
12910;SDS011;6523;49.758;6.120;2022-10-16T00:21:21;2.93;;;2.63;;
12910;SDS011;6523;49.758;6.120;2022-10-16T00:23:56;5.53;;;2.20;;
12910;SDS011;6523;49.758;6.120;2022-10-16T00:26:30;2.27;;;2.07;;
12910;SDS011;6523;49.758;6.120;2022-10-16T00:28:58;3.53;;;2.23;;
12910;SDS011;6523;49.758;6.120;2022-10-16T00:31:24;2.83;;;2.30;;
12910;SDS011;6523;49.758;6.120;2022-10-16T00:33:49;2.97;;;2.20;;
12910;SDS011;6523;49.758;6.120;2022-10-16T00:36:16;2.80;;;2.60;;
12910;SDS011;6523;49.758;6.120;2022-10-16T00:38:43;4.57;;;3.17;;
12910;SDS011;6523;49.758;6.120;2022-10-16T00:41:10;3.20;;;2.90;;
12910;SDS011;6523;49.758;6.120;2022-10-16T00:46:15;4.30;;;3.90;;
12910;SDS011;6523;49.758;6.120;2022-10-16T00:49:08;4.73;;;4.07;;
12910;SDS011;6523;49.758;6.120;2022-10-16T00:51:55;5.57;;;4.53;;
12910;SDS011;6523;49.758;6.120;2022-10-16T00:54:25;4.00;;;3.60;;
12910;SDS011;6523;49.758;6.120;2022-10-16T00:56:53;4.20;;;3.80;;
12910;SDS011;6523;49.758;6.120;2022-10-16T00:59:25;4.87;;;4.17;;
12910;SDS011;6523;49.758;6.120;2022-10-16T01:01:53;6.70;;;4.10;;
12910;SDS011;6523;49.758;6.120;2022-10-16T01:04:19;3.93;;;3.60;;
12910;SDS011;6523;49.758;6.120;2022-10-16T01:06:48;4.70;;;4.30;;
12910;SDS011;6523;49.758;6.120;2022-10-16T01:09:30;4.43;;;3.90;;
12910;SDS011;6523;49.758;6.120;2022-10-16T01:12:27;7.20;;;4.40;;
12910;SDS011;6523;49.758;6.120;2022-10-16T01:17:32;4.60;;;4.20;;
12910;SDS011;6523;49.758;6.120;2022-10-16T01:20:10;5.33;;;4.63;;
12910;SDS011;6523;49.758;6.120;2022-10-16T01:23:16;6.00;;;4.57;;
12910;SDS011;6523;49.758;6.120;2022-10-16T01:31:18;4.40;;;4.00;;
12910;SDS011;6523;49.758;6.120;2022-10-16T01:33:47;5.37;;;3.97;;
12910;SDS011;6523;49.758;6.120;2022-10-16T01:36:40;3.57;;;3.07;;
12910;SDS011;6523;49.758;6.120;2022-10-16T01:39:10;2.90;;;2.70;;
12910;SDS011;6523;49.758;6.120;2022-10-16T01:41:38;3.23;;;2.93;;
12910;SDS011;6523;49.758;6.120;2022-10-16T01:44:10;4.10;;;3.60;;
12910;SDS011;6523;49.758;6.120;2022-10-16T01:46:42;3.73;;;3.33;;
12910;SDS011;6523;49.758;6.120;2022-10-16T01:49:10;3.40;;;3.10;;
12910;SDS011;6523;49.758;6.120;2022-10-16T01:51:37;4.40;;;3.30;;
12910;SDS011;6523;49.758;6.120;2022-10-16T01:54:04;2.83;;;2.63;;
12910;SDS011;6523;49.758;6.120;2022-10-16T01:56:32;4.00;;;2.87;;
12910;SDS011;6523;49.758;6.120;2022-10-16T01:59:06;3.90;;;2.83;;
12910;SDS011;6523;49.758;6.120;2022-10-16T02:01:38;4.87;;;2.90;;
12910;SDS011;6523;49.758;6.120;2022-10-16T02:04:16;2.97;;;2.73;;
12910;SDS011;6523;49.758;6.120;2022-10-16T02:06:45;3.37;;;2.30;;
12910;SDS011;6523;49.758;6.120;2022-10-16T02:09:11;2.97;;;2.20;;
12910;SDS011;6523;49.758;6.120;2022-10-16T02:11:36;1.90;;;1.80;;
12910;SDS011;6523;49.758;6.120;2022-10-16T02:14:03;2.03;;;1.77;;
12910;SDS011;6523;49.758;6.120;2022-10-16T02:16:49;2.20;;;2.00;;
12910;SDS011;6523;49.758;6.120;2022-10-16T02:19:15;3.30;;;1.50;;
12910;SDS011;6523;49.758;6.120;2022-10-16T02:21:56;1.63;;;1.40;;
12910;SDS011;6523;49.758;6.120;2022-10-16T02:24:37;1.90;;;1.00;;
12910;SDS011;6523;49.758;6.120;2022-10-16T02:27:17;1.03;;;0.90;;
12910;SDS011;6523;49.758;6.120;2022-10-16T02:29:49;0.97;;;0.90;;
12910;SDS011;6523;49.758;6.120;2022-10-16T02:32:23;3.77;;;1.00;;
12910;SDS011;6523;49.758;6.120;2022-10-16T02:34:52;1.20;;;1.10;;
12910;SDS011;6523;49.758;6.120;2022-10-16T02:37:19;1.30;;;1.20;;
12910;SDS011;6523;49.758;6.120;2022-10-16T02:39:44;4.00;;;1.10;;
12910;SDS011;6523;49.758;6.120;2022-10-16T02:42:11;1.70;;;1.03;;
12910;SDS011;6523;49.758;6.120;2022-10-16T02:44:40;1.10;;;1.00;;
12910;SDS011;6523;49.758;6.120;2022-10-16T02:47:05;1.90;;;0.97;;
12910;SDS011;6523;49.758;6.120;2022-10-16T02:49:31;1.20;;;1.10;;
12910;SDS011;6523;49.758;6.120;2022-10-16T02:51:57;1.10;;;1.03;;
12910;SDS011;6523;49.758;6.120;2022-10-16T02:54:22;1.83;;;1.00;;
12910;SDS011;6523;49.758;6.120;2022-10-16T02:56:48;1.03;;;0.93;;
12910;SDS011;6523;49.758;6.120;2022-10-16T02:59:14;1.20;;;1.10;;
12910;SDS011;6523;49.758;6.120;2022-10-16T03:01:40;2.23;;;1.20;;
12910;SDS011;6523;49.758;6.120;2022-10-16T03:04:05;2.00;;;1.27;;
12910;SDS011;6523;49.758;6.120;2022-10-16T03:06:31;3.30;;;1.53;;
12910;SDS011;6523;49.758;6.120;2022-10-16T03:08:56;1.93;;;1.53;;
12910;SDS011;6523;49.758;6.120;2022-10-16T03:11:22;1.37;;;1.27;;
12910;SDS011;6523;49.758;6.120;2022-10-16T03:13:47;1.20;;;1.20;;
12910;SDS011;6523;49.758;6.120;2022-10-16T03:16:13;2.27;;;1.20;;
12910;SDS011;6523;49.758;6.120;2022-10-16T03:18:39;2.73;;;1.67;;
12910;SDS011;6523;49.758;6.120;2022-10-16T03:21:04;3.10;;;1.30;;
12910;SDS011;6523;49.758;6.120;2022-10-16T03:23:30;1.87;;;1.13;;
12910;SDS011;6523;49.758;6.120;2022-10-16T03:25:55;2.37;;;1.30;;
12910;SDS011;6523;49.758;6.120;2022-10-16T03:28:21;1.30;;;1.20;;
12910;SDS011;6523;49.758;6.120;2022-10-16T03:30:46;3.40;;;1.47;;
12910;SDS011;6523;49.758;6.120;2022-10-16T03:33:12;1.30;;;1.10;;
12910;SDS011;6523;49.758;6.120;2022-10-16T03:35:37;3.07;;;1.50;;
12910;SDS011;6523;49.758;6.120;2022-10-16T03:38:03;2.67;;;1.30;;
12910;SDS011;6523;49.758;6.120;2022-10-16T03:40:29;1.47;;;1.13;;
12910;SDS011;6523;49.758;6.120;2022-10-16T03:42:57;2.40;;;1.20;;
12910;SDS011;6523;49.758;6.120;2022-10-16T03:45:23;1.77;;;1.10;;
12910;SDS011;6523;49.758;6.120;2022-10-16T03:47:49;1.40;;;1.30;;
12910;SDS011;6523;49.758;6.120;2022-10-16T03:50:14;1.80;;;1.20;;
12910;SDS011;6523;49.758;6.120;2022-10-16T03:52:40;3.87;;;1.60;;
12910;SDS011;6523;49.758;6.120;2022-10-16T03:55:06;2.67;;;1.50;;
12910;SDS011;6523;49.758;6.120;2022-10-16T03:57:32;2.77;;;1.40;;
12910;SDS011;6523;49.758;6.120;2022-10-16T03:59:58;3.80;;;1.57;;
12910;SDS011;6523;49.758;6.120;2022-10-16T04:02:23;1.50;;;1.40;;
12910;SDS011;6523;49.758;6.120;2022-10-16T04:04:49;2.57;;;1.50;;
12910;SDS011;6523;49.758;6.120;2022-10-16T04:07:15;7.60;;;2.40;;
12910;SDS011;6523;49.758;6.120;2022-10-16T04:09:40;1.67;;;1.17;;
12910;SDS011;6523;49.758;6.120;2022-10-16T04:12:06;3.67;;;1.50;;
12910;SDS011;6523;49.758;6.120;2022-10-16T04:14:32;1.93;;;1.40;;
12910;SDS011;6523;49.758;6.120;2022-10-16T04:16:58;1.97;;;1.07;;
12910;SDS011;6523;49.758;6.120;2022-10-16T04:19:23;3.47;;;1.10;;
12910;SDS011;6523;49.758;6.120;2022-10-16T04:21:49;1.90;;;0.90;;
12910;SDS011;6523;49.758;6.120;2022-10-16T04:24:14;0.80;;;0.80;;
12910;SDS011;6523;49.758;6.120;2022-10-16T04:26:40;0.90;;;0.90;;
12910;SDS011;6523;49.758;6.120;2022-10-16T04:29:05;1.13;;;1.00;;
12910;SDS011;6523;49.758;6.120;2022-10-16T04:31:32;1.23;;;1.10;;
12910;SDS011;6523;49.758;6.120;2022-10-16T04:33:58;5.27;;;1.40;;
12910;SDS011;6523;49.758;6.120;2022-10-16T04:36:23;2.13;;;1.00;;
12910;SDS011;6523;49.758;6.120;2022-10-16T04:38:49;1.70;;;0.90;;
12910;SDS011;6523;49.758;6.120;2022-10-16T04:41:14;1.50;;;0.83;;
12910;SDS011;6523;49.758;6.120;2022-10-16T04:43:40;2.40;;;1.30;;
12910;SDS011;6523;49.758;6.120;2022-10-16T04:46:06;0.90;;;0.90;;
12910;SDS011;6523;49.758;6.120;2022-10-16T04:48:31;2.60;;;1.20;;
12910;SDS011;6523;49.758;6.120;2022-10-16T04:50:57;1.53;;;1.10;;
12910;SDS011;6523;49.758;6.120;2022-10-16T04:53:22;3.17;;;1.30;;
12910;SDS011;6523;49.758;6.120;2022-10-16T04:55:48;1.10;;;1.10;;
12910;SDS011;6523;49.758;6.120;2022-10-16T04:58:14;1.63;;;1.20;;
12910;SDS011;6523;49.758;6.120;2022-10-16T05:00:40;4.43;;;1.50;;
12910;SDS011;6523;49.758;6.120;2022-10-16T05:03:05;1.60;;;1.40;;
12910;SDS011;6523;49.758;6.120;2022-10-16T05:05:33;4.97;;;1.77;;
12910;SDS011;6523;49.758;6.120;2022-10-16T05:07:59;1.33;;;1.23;;
12910;SDS011;6523;49.758;6.120;2022-10-16T05:10:25;2.27;;;1.40;;
12910;SDS011;6523;49.758;6.120;2022-10-16T05:12:51;1.00;;;1.00;;
12910;SDS011;6523;49.758;6.120;2022-10-16T05:15:16;3.50;;;1.30;;
12910;SDS011;6523;49.758;6.120;2022-10-16T05:17:42;2.93;;;1.53;;
12910;SDS011;6523;49.758;6.120;2022-10-16T05:20:08;1.50;;;1.37;;
12910;SDS011;6523;49.758;6.120;2022-10-16T05:22:33;3.73;;;1.70;;
12910;SDS011;6523;49.758;6.120;2022-10-16T05:24:59;2.33;;;1.43;;
12910;SDS011;6523;49.758;6.120;2022-10-16T05:27:24;3.90;;;1.90;;
12910;SDS011;6523;49.758;6.120;2022-10-16T05:29:50;1.60;;;1.50;;
12910;SDS011;6523;49.758;6.120;2022-10-16T05:32:16;2.37;;;1.40;;
12910;SDS011;6523;49.758;6.120;2022-10-16T05:34:43;3.83;;;1.60;;
12910;SDS011;6523;49.758;6.120;2022-10-16T05:37:09;2.00;;;1.47;;
12910;SDS011;6523;49.758;6.120;2022-10-16T05:39:35;1.70;;;1.30;;
12910;SDS011;6523;49.758;6.120;2022-10-16T05:42:02;3.73;;;1.40;;
12910;SDS011;6523;49.758;6.120;2022-10-16T05:44:28;1.40;;;1.20;;
12910;SDS011;6523;49.758;6.120;2022-10-16T05:46:53;1.43;;;1.33;;
12910;SDS011;6523;49.758;6.120;2022-10-16T05:49:19;2.47;;;1.53;;
12910;SDS011;6523;49.758;6.120;2022-10-16T05:51:44;4.00;;;2.00;;
12910;SDS011;6523;49.758;6.120;2022-10-16T05:54:10;5.30;;;2.10;;
12910;SDS011;6523;49.758;6.120;2022-10-16T05:56:35;2.83;;;1.80;;
12910;SDS011;6523;49.758;6.120;2022-10-16T05:59:02;3.23;;;1.90;;
12910;SDS011;6523;49.758;6.120;2022-10-16T06:01:29;3.37;;;2.00;;
12910;SDS011;6523;49.758;6.120;2022-10-16T06:03:55;3.33;;;2.07;;
12910;SDS011;6523;49.758;6.120;2022-10-16T06:06:23;4.67;;;1.83;;
12910;SDS011;6523;49.758;6.120;2022-10-16T06:08:50;4.33;;;2.17;;
12910;SDS011;6523;49.758;6.120;2022-10-16T06:11:27;1.97;;;1.80;;
12910;SDS011;6523;49.758;6.120;2022-10-16T06:13:55;2.10;;;1.90;;
12910;SDS011;6523;49.758;6.120;2022-10-16T06:16:22;2.00;;;1.80;;
12910;SDS011;6523;49.758;6.120;2022-10-16T06:18:52;2.53;;;1.83;;
12910;SDS011;6523;49.758;6.120;2022-10-16T06:21:20;2.10;;;1.90;;
12910;SDS011;6523;49.758;6.120;2022-10-16T06:23:47;2.77;;;2.40;;
12910;SDS011;6523;49.758;6.120;2022-10-16T06:26:14;3.33;;;2.30;;
12910;SDS011;6523;49.758;6.120;2022-10-16T06:28:41;3.40;;;3.20;;
12910;SDS011;6523;49.758;6.120;2022-10-16T06:31:08;2.30;;;2.10;;
12910;SDS011;6523;49.758;6.120;2022-10-16T06:33:35;2.77;;;2.57;;
12910;SDS011;6523;49.758;6.120;2022-10-16T06:36:05;3.43;;;2.57;;
12910;SDS011;6523;49.758;6.120;2022-10-16T06:38:39;3.00;;;2.80;;
12910;SDS011;6523;49.758;6.120;2022-10-16T06:41:06;2.47;;;2.20;;
12910;SDS011;6523;49.758;6.120;2022-10-16T06:43:32;2.20;;;1.60;;
12910;SDS011;6523;49.758;6.120;2022-10-16T06:46:00;2.70;;;1.80;;
12910;SDS011;6523;49.758;6.120;2022-10-16T06:48:27;2.80;;;1.80;;
12910;SDS011;6523;49.758;6.120;2022-10-16T06:51:00;3.03;;;2.03;;
12910;SDS011;6523;49.758;6.120;2022-10-16T06:53:46;2.27;;;1.97;;
12910;SDS011;6523;49.758;6.120;2022-10-16T06:56:18;4.07;;;1.53;;
12910;SDS011;6523;49.758;6.120;2022-10-16T06:58:52;3.63;;;1.87;;
12910;SDS011;6523;49.758;6.120;2022-10-16T07:01:19;2.60;;;1.80;;
12910;SDS011;6523;49.758;6.120;2022-10-16T07:03:46;2.97;;;1.63;;
12910;SDS011;6523;49.758;6.120;2022-10-16T07:06:13;2.00;;;1.80;;
12910;SDS011;6523;49.758;6.120;2022-10-16T07:08:41;3.20;;;1.90;;
12910;SDS011;6523;49.758;6.120;2022-10-16T07:11:09;3.50;;;2.03;;
12910;SDS011;6523;49.758;6.120;2022-10-16T07:13:40;4.57;;;2.90;;
12910;SDS011;6523;49.758;6.120;2022-10-16T07:16:11;8.37;;;3.23;;
12910;SDS011;6523;49.758;6.120;2022-10-16T07:18:39;2.97;;;2.23;;
12910;SDS011;6523;49.758;6.120;2022-10-16T07:21:15;2.40;;;2.20;;
12910;SDS011;6523;49.758;6.120;2022-10-16T07:23:42;2.47;;;2.27;;
12910;SDS011;6523;49.758;6.120;2022-10-16T07:26:08;2.80;;;2.33;;
12910;SDS011;6523;49.758;6.120;2022-10-16T07:28:35;3.33;;;2.87;;
12910;SDS011;6523;49.758;6.120;2022-10-16T07:31:05;3.77;;;2.63;;
12910;SDS011;6523;49.758;6.120;2022-10-16T07:33:33;3.03;;;2.40;;
12910;SDS011;6523;49.758;6.120;2022-10-16T07:36:00;3.53;;;2.43;;
12910;SDS011;6523;49.758;6.120;2022-10-16T07:38:26;3.03;;;2.73;;
12910;SDS011;6523;49.758;6.120;2022-10-16T07:43:23;3.20;;;2.80;;
12910;SDS011;6523;49.758;6.120;2022-10-16T07:45:50;5.70;;;2.67;;
12910;SDS011;6523;49.758;6.120;2022-10-16T07:48:16;2.50;;;2.30;;
12910;SDS011;6523;49.758;6.120;2022-10-16T07:50:42;2.43;;;1.90;;
12910;SDS011;6523;49.758;6.120;2022-10-16T07:53:09;4.10;;;2.50;;
12910;SDS011;6523;49.758;6.120;2022-10-16T07:55:35;3.17;;;2.27;;
12910;SDS011;6523;49.758;6.120;2022-10-16T07:58:01;2.83;;;2.30;;
12910;SDS011;6523;49.758;6.120;2022-10-16T08:00:26;2.43;;;2.20;;
12910;SDS011;6523;49.758;6.120;2022-10-16T08:02:52;3.50;;;2.33;;
12910;SDS011;6523;49.758;6.120;2022-10-16T08:05:17;3.40;;;2.13;;
12910;SDS011;6523;49.758;6.120;2022-10-16T08:07:48;2.80;;;2.60;;
12910;SDS011;6523;49.758;6.120;2022-10-16T08:10:15;2.47;;;2.27;;
12910;SDS011;6523;49.758;6.120;2022-10-16T08:12:42;2.50;;;2.30;;
12910;SDS011;6523;49.758;6.120;2022-10-16T08:15:08;3.73;;;2.30;;
12910;SDS011;6523;49.758;6.120;2022-10-16T08:17:34;4.07;;;2.53;;
12910;SDS011;6523;49.758;6.120;2022-10-16T08:20:00;5.43;;;2.70;;
12910;SDS011;6523;49.758;6.120;2022-10-16T08:22:26;2.90;;;2.57;;
12910;SDS011;6523;49.758;6.120;2022-10-16T08:24:52;3.00;;;2.80;;
12910;SDS011;6523;49.758;6.120;2022-10-16T08:27:17;6.37;;;2.67;;
12910;SDS011;6523;49.758;6.120;2022-10-16T08:29:43;3.77;;;2.70;;
12910;SDS011;6523;49.758;6.120;2022-10-16T08:32:08;3.20;;;2.90;;
12910;SDS011;6523;49.758;6.120;2022-10-16T08:34:34;5.60;;;2.70;;
12910;SDS011;6523;49.758;6.120;2022-10-16T08:37:00;3.60;;;2.50;;
12910;SDS011;6523;49.758;6.120;2022-10-16T08:39:25;2.50;;;2.30;;
12910;SDS011;6523;49.758;6.120;2022-10-16T08:42:09;2.37;;;2.17;;
12910;SDS011;6523;49.758;6.120;2022-10-16T08:50:38;2.17;;;1.97;;
12910;SDS011;6523;49.758;6.120;2022-10-16T08:53:04;2.23;;;2.03;;
12910;SDS011;6523;49.758;6.120;2022-10-16T08:55:48;2.43;;;1.90;;
12910;SDS011;6523;49.758;6.120;2022-10-16T08:58:17;2.50;;;2.03;;
12910;SDS011;6523;49.758;6.120;2022-10-16T09:00:43;2.83;;;1.90;;
12910;SDS011;6523;49.758;6.120;2022-10-16T09:03:23;3.30;;;2.00;;
12910;SDS011;6523;49.758;6.120;2022-10-16T09:06:10;2.20;;;2.00;;
12910;SDS011;6523;49.758;6.120;2022-10-16T09:18:15;2.57;;;2.37;;
12910;SDS011;6523;49.758;6.120;2022-10-16T09:23:28;1.70;;;1.60;;
12910;SDS011;6523;49.758;6.120;2022-10-16T09:25:58;2.13;;;1.80;;
12910;SDS011;6523;49.758;6.120;2022-10-16T09:28:24;1.80;;;1.60;;
12910;SDS011;6523;49.758;6.120;2022-10-16T09:30:49;2.50;;;2.30;;
12910;SDS011;6523;49.758;6.120;2022-10-16T09:33:17;1.40;;;1.30;;
12910;SDS011;6523;49.758;6.120;2022-10-16T09:35:46;1.50;;;1.33;;
12910;SDS011;6523;49.758;6.120;2022-10-16T09:38:36;1.47;;;1.03;;
12910;SDS011;6523;49.758;6.120;2022-10-16T09:41:03;1.57;;;1.10;;
12910;SDS011;6523;49.758;6.120;2022-10-16T09:43:47;1.10;;;1.10;;
12910;SDS011;6523;49.758;6.120;2022-10-16T09:46:26;2.00;;;1.10;;
12910;SDS011;6523;49.758;6.120;2022-10-16T09:49:00;1.80;;;1.30;;
12910;SDS011;6523;49.758;6.120;2022-10-16T09:51:29;1.90;;;1.43;;
12910;SDS011;6523;49.758;6.120;2022-10-16T09:54:12;1.87;;;1.57;;
12910;SDS011;6523;49.758;6.120;2022-10-16T09:56:38;1.60;;;1.50;;
12910;SDS011;6523;49.758;6.120;2022-10-16T09:59:45;1.90;;;1.70;;
12910;SDS011;6523;49.758;6.120;2022-10-16T10:02:00;1.93;;;1.50;;
12910;SDS011;6523;49.758;6.120;2022-10-16T10:04:37;1.93;;;1.20;;
12910;SDS011;6523;49.758;6.120;2022-10-16T10:07:05;1.90;;;1.50;;
12910;SDS011;6523;49.758;6.120;2022-10-16T10:09:42;1.47;;;1.30;;
12910;SDS011;6523;49.758;6.120;2022-10-16T10:12:19;1.30;;;1.10;;
12910;SDS011;6523;49.758;6.120;2022-10-16T10:14:47;0.97;;;0.97;;
12910;SDS011;6523;49.758;6.120;2022-10-16T10:17:19;1.03;;;0.90;;
12910;SDS011;6523;49.758;6.120;2022-10-16T10:19:57;0.80;;;0.80;;
12910;SDS011;6523;49.758;6.120;2022-10-16T10:22:43;1.60;;;1.00;;
12910;SDS011;6523;49.758;6.120;2022-10-16T10:30:45;2.60;;;1.23;;
12910;SDS011;6523;49.758;6.120;2022-10-16T10:39:13;1.87;;;0.80;;
12910;SDS011;6523;49.758;6.120;2022-10-16T10:47:11;0.80;;;0.80;;
12910;SDS011;6523;49.758;6.120;2022-10-16T10:55:45;0.80;;;0.80;;
12910;SDS011;6523;49.758;6.120;2022-10-16T10:58:45;0.90;;;0.90;;
12910;SDS011;6523;49.758;6.120;2022-10-16T11:06:57;1.53;;;0.80;;
12910;SDS011;6523;49.758;6.120;2022-10-16T11:09:28;0.90;;;0.90;;
12910;SDS011;6523;49.758;6.120;2022-10-16T11:12:00;0.90;;;0.90;;
12910;SDS011;6523;49.758;6.120;2022-10-16T11:17:21;1.00;;;0.80;;
12910;SDS011;6523;49.758;6.120;2022-10-16T11:25:11;1.33;;;0.70;;
12910;SDS011;6523;49.758;6.120;2022-10-16T11:30:29;0.70;;;0.70;;
12910;SDS011;6523;49.758;6.120;2022-10-16T11:35:44;2.20;;;1.00;;
12910;SDS011;6523;49.758;6.120;2022-10-16T11:41:24;1.10;;;1.00;;
12910;SDS011;6523;49.758;6.120;2022-10-16T11:43:58;2.20;;;1.20;;
12910;SDS011;6523;49.758;6.120;2022-10-16T11:46:34;1.23;;;1.00;;
12910;SDS011;6523;49.758;6.120;2022-10-16T11:49:06;1.57;;;1.37;;
12910;SDS011;6523;49.758;6.120;2022-10-16T11:51:41;2.73;;;2.10;;
12910;SDS011;6523;49.758;6.120;2022-10-16T11:54:29;2.50;;;2.37;;
12910;SDS011;6523;49.758;6.120;2022-10-16T11:57:03;2.70;;;2.50;;
12910;SDS011;6523;49.758;6.120;2022-10-16T11:59:58;2.30;;;2.10;;
12910;SDS011;6523;49.758;6.120;2022-10-16T12:05:23;2.90;;;2.67;;
12910;SDS011;6523;49.758;6.120;2022-10-16T12:08:09;2.50;;;2.40;;
12910;SDS011;6523;49.758;6.120;2022-10-16T12:10:41;2.27;;;2.10;;
12910;SDS011;6523;49.758;6.120;2022-10-16T12:13:28;2.70;;;2.50;;
12910;SDS011;6523;49.758;6.120;2022-10-16T12:18:45;2.93;;;2.73;;
12910;SDS011;6523;49.758;6.120;2022-10-16T12:21:13;2.97;;;2.77;;
12910;SDS011;6523;49.758;6.120;2022-10-16T12:23:48;3.10;;;2.87;;
12910;SDS011;6523;49.758;6.120;2022-10-16T12:26:25;4.03;;;3.27;;
12910;SDS011;6523;49.758;6.120;2022-10-16T12:28:57;3.30;;;3.00;;
12910;SDS011;6523;49.758;6.120;2022-10-16T12:31:46;2.93;;;2.63;;
12910;SDS011;6523;49.758;6.120;2022-10-16T12:34:14;3.13;;;2.83;;
12910;SDS011;6523;49.758;6.120;2022-10-16T12:36:47;4.43;;;2.60;;
12910;SDS011;6523;49.758;6.120;2022-10-16T12:39:27;3.43;;;2.70;;
12910;SDS011;6523;49.758;6.120;2022-10-16T12:44:47;4.70;;;2.57;;
12910;SDS011;6523;49.758;6.120;2022-10-16T12:47:23;4.50;;;2.50;;
12910;SDS011;6523;49.758;6.120;2022-10-16T12:49:55;2.63;;;2.43;;
12910;SDS011;6523;49.758;6.120;2022-10-16T12:54:58;2.70;;;2.10;;
12910;SDS011;6523;49.758;6.120;2022-10-16T13:00:04;6.20;;;2.23;;
12910;SDS011;6523;49.758;6.120;2022-10-16T13:05:43;3.23;;;2.70;;
12910;SDS011;6523;49.758;6.120;2022-10-16T13:11:05;2.17;;;1.97;;
12910;SDS011;6523;49.758;6.120;2022-10-16T13:13:47;3.50;;;3.03;;
12910;SDS011;6523;49.758;6.120;2022-10-16T13:30:54;2.73;;;2.53;;
12910;SDS011;6523;49.758;6.120;2022-10-16T13:35:56;3.20;;;2.73;;
12910;SDS011;6523;49.758;6.120;2022-10-16T13:38:26;7.00;;;5.83;;
12910;SDS011;6523;49.758;6.120;2022-10-16T13:40:57;2.73;;;2.53;;
12910;SDS011;6523;49.758;6.120;2022-10-16T13:46:03;2.40;;;2.20;;
12910;SDS011;6523;49.758;6.120;2022-10-16T13:48:31;2.90;;;2.60;;
12910;SDS011;6523;49.758;6.120;2022-10-16T13:51:02;2.50;;;2.00;;
12910;SDS011;6523;49.758;6.120;2022-10-16T13:53:37;3.00;;;2.70;;
12910;SDS011;6523;49.758;6.120;2022-10-16T13:56:04;3.13;;;2.70;;
12910;SDS011;6523;49.758;6.120;2022-10-16T13:58:32;2.60;;;2.23;;
12910;SDS011;6523;49.758;6.120;2022-10-16T14:00:58;2.83;;;2.30;;
12910;SDS011;6523;49.758;6.120;2022-10-16T14:03:26;3.37;;;2.50;;
12910;SDS011;6523;49.758;6.120;2022-10-16T14:05:54;2.70;;;2.33;;
12910;SDS011;6523;49.758;6.120;2022-10-16T14:08:24;3.00;;;2.50;;
12910;SDS011;6523;49.758;6.120;2022-10-16T14:10:52;2.60;;;2.40;;
12910;SDS011;6523;49.758;6.120;2022-10-16T14:13:54;4.33;;;2.60;;
12910;SDS011;6523;49.758;6.120;2022-10-16T14:16:22;2.60;;;2.40;;
12910;SDS011;6523;49.758;6.120;2022-10-16T14:19:02;3.43;;;2.73;;
12910;SDS011;6523;49.758;6.120;2022-10-16T14:21:31;4.00;;;2.63;;
12910;SDS011;6523;49.758;6.120;2022-10-16T14:23:58;3.17;;;2.67;;
12910;SDS011;6523;49.758;6.120;2022-10-16T14:26:25;3.50;;;2.93;;
12910;SDS011;6523;49.758;6.120;2022-10-16T14:29:12;5.40;;;3.37;;
12910;SDS011;6523;49.758;6.120;2022-10-16T14:31:56;4.97;;;3.37;;
12910;SDS011;6523;49.758;6.120;2022-10-16T14:34:30;3.70;;;3.40;;
12910;SDS011;6523;49.758;6.120;2022-10-16T14:37:05;4.07;;;3.00;;
12910;SDS011;6523;49.758;6.120;2022-10-16T14:39:39;3.40;;;3.10;;
12910;SDS011;6523;49.758;6.120;2022-10-16T14:42:11;3.63;;;3.33;;
12910;SDS011;6523;49.758;6.120;2022-10-16T14:44:41;3.73;;;3.43;;
12910;SDS011;6523;49.758;6.120;2022-10-16T14:47:12;3.90;;;3.50;;
12910;SDS011;6523;49.758;6.120;2022-10-16T14:49:41;5.03;;;3.47;;
12910;SDS011;6523;49.758;6.120;2022-10-16T14:52:11;3.83;;;3.53;;
12910;SDS011;6523;49.758;6.120;2022-10-16T14:54:37;5.27;;;3.73;;
12910;SDS011;6523;49.758;6.120;2022-10-16T14:57:03;4.60;;;2.97;;
12910;SDS011;6523;49.758;6.120;2022-10-16T14:59:33;3.57;;;3.27;;
12910;SDS011;6523;49.758;6.120;2022-10-16T15:04:43;4.53;;;3.47;;
12910;SDS011;6523;49.758;6.120;2022-10-16T15:07:08;5.00;;;3.20;;
12910;SDS011;6523;49.758;6.120;2022-10-16T15:09:34;4.20;;;3.77;;
12910;SDS011;6523;49.758;6.120;2022-10-16T15:11:59;4.13;;;3.73;;
12910;SDS011;6523;49.758;6.120;2022-10-16T15:14:25;5.30;;;3.60;;
12910;SDS011;6523;49.758;6.120;2022-10-16T15:16:50;4.47;;;3.57;;
12910;SDS011;6523;49.758;6.120;2022-10-16T15:19:16;4.63;;;3.77;;
12910;SDS011;6523;49.758;6.120;2022-10-16T15:21:42;3.40;;;3.10;;
12910;SDS011;6523;49.758;6.120;2022-10-16T15:24:09;4.20;;;3.30;;
12910;SDS011;6523;49.758;6.120;2022-10-16T15:26:37;5.73;;;3.47;;
12910;SDS011;6523;49.758;6.120;2022-10-16T15:29:03;4.63;;;3.87;;
12910;SDS011;6523;49.758;6.120;2022-10-16T15:31:29;4.13;;;3.57;;
12910;SDS011;6523;49.758;6.120;2022-10-16T15:33:55;6.80;;;3.50;;
12910;SDS011;6523;49.758;6.120;2022-10-16T15:36:33;5.90;;;4.00;;
12910;SDS011;6523;49.758;6.120;2022-10-16T15:39:14;6.57;;;3.70;;
12910;SDS011;6523;49.758;6.120;2022-10-16T15:41:42;4.10;;;3.70;;
12910;SDS011;6523;49.758;6.120;2022-10-16T15:44:08;4.80;;;3.67;;
12910;SDS011;6523;49.758;6.120;2022-10-16T15:46:34;4.33;;;3.93;;
12910;SDS011;6523;49.758;6.120;2022-10-16T15:49:01;5.07;;;3.67;;
12910;SDS011;6523;49.758;6.120;2022-10-16T15:51:27;5.00;;;3.17;;
12910;SDS011;6523;49.758;6.120;2022-10-16T15:53:55;3.90;;;3.50;;
12910;SDS011;6523;49.758;6.120;2022-10-16T15:56:22;4.37;;;3.97;;
12910;SDS011;6523;49.758;6.120;2022-10-16T15:58:49;4.57;;;4.07;;
12910;SDS011;6523;49.758;6.120;2022-10-16T16:01:14;4.20;;;3.60;;
12910;SDS011;6523;49.758;6.120;2022-10-16T16:03:41;3.97;;;3.47;;
12910;SDS011;6523;49.758;6.120;2022-10-16T16:06:08;5.73;;;3.27;;
12910;SDS011;6523;49.758;6.120;2022-10-16T16:08:35;6.73;;;3.30;;
12910;SDS011;6523;49.758;6.120;2022-10-16T16:11:03;5.97;;;3.90;;
12910;SDS011;6523;49.758;6.120;2022-10-16T16:13:30;4.37;;;3.40;;
12910;SDS011;6523;49.758;6.120;2022-10-16T16:15:56;6.40;;;3.43;;
12910;SDS011;6523;49.758;6.120;2022-10-16T16:18:21;7.93;;;4.07;;
12910;SDS011;6523;49.758;6.120;2022-10-16T16:20:48;5.67;;;3.80;;
12910;SDS011;6523;49.758;6.120;2022-10-16T16:23:15;6.57;;;3.60;;
12910;SDS011;6523;49.758;6.120;2022-10-16T16:25:41;8.23;;;3.57;;
12910;SDS011;6523;49.758;6.120;2022-10-16T16:28:06;4.50;;;3.60;;
12910;SDS011;6523;49.758;6.120;2022-10-16T16:30:32;7.33;;;3.40;;
12910;SDS011;6523;49.758;6.120;2022-10-16T16:32:58;4.87;;;3.50;;
12910;SDS011;6523;49.758;6.120;2022-10-16T16:35:23;3.57;;;3.23;;
12910;SDS011;6523;49.758;6.120;2022-10-16T16:37:49;5.03;;;3.67;;
12910;SDS011;6523;49.758;6.120;2022-10-16T16:40:14;3.73;;;3.23;;
12910;SDS011;6523;49.758;6.120;2022-10-16T16:42:40;4.70;;;3.13;;
12910;SDS011;6523;49.758;6.120;2022-10-16T16:45:06;5.07;;;3.70;;
12910;SDS011;6523;49.758;6.120;2022-10-16T16:47:32;5.43;;;3.60;;
12910;SDS011;6523;49.758;6.120;2022-10-16T16:49:57;6.10;;;3.50;;
12910;SDS011;6523;49.758;6.120;2022-10-16T16:52:23;7.27;;;3.13;;
12910;SDS011;6523;49.758;6.120;2022-10-16T16:54:49;6.33;;;4.10;;
12910;SDS011;6523;49.758;6.120;2022-10-16T16:57:20;8.30;;;3.60;;
12910;SDS011;6523;49.758;6.120;2022-10-16T16:59:46;5.97;;;4.20;;
12910;SDS011;6523;49.758;6.120;2022-10-16T17:02:11;6.00;;;5.40;;
12910;SDS011;6523;49.758;6.120;2022-10-16T17:04:37;5.27;;;4.63;;
12910;SDS011;6523;49.758;6.120;2022-10-16T17:07:03;6.63;;;6.00;;
12910;SDS011;6523;49.758;6.120;2022-10-16T17:09:28;9.13;;;6.97;;
12910;SDS011;6523;49.758;6.120;2022-10-16T17:11:56;7.30;;;5.90;;
12910;SDS011;6523;49.758;6.120;2022-10-16T17:14:22;7.53;;;6.80;;